Trion, Georgia
Current Conditions -  °F | °C
As of 1:53 PM on Tuesday 21 Oct 2014 (Local Time) from KRMG Reporting Station
Clear Clear  
Wind Chill: 74°   Ceiling: Unl
Heat Index: 74°   Visibility: 10mi
Dew Point: 53°   Wind: 13mph
Humidity: 48%   Direction: 340°NNW
Pressure: 30"   Gusts: 16mph
Location:  34.54°N, 85.31°W
Report Text: KRMG 211753Z AUTO 34011G14KT 10SM CLR 23/12 A3000 RMK AO2 SLP152 T02330117 10233 20072 58017
Loading
Personal Weather Stations






























Interactive Weather Map
Tropical Storm Tracking
New forecast layout! Learn more

10-Day Weather Forecast

Advertisements
Track Severe Weather on mobile